createdAt,value
2018-09-17T00:00:58.189Z,5.27
2018-09-17T00:03:26.251Z,5.50
2018-09-17T00:05:54.330Z,5.10
2018-09-17T00:08:23.377Z,5.07
2018-09-17T00:10:51.447Z,5.57
2018-09-17T00:13:19.538Z,5.43
2018-09-17T00:15:47.650Z,5.73
2018-09-17T00:18:15.748Z,5.83
2018-09-17T00:20:43.953Z,6.23
2018-09-17T00:23:12.024Z,5.87
2018-09-17T00:25:40.142Z,5.60
2018-09-17T00:28:08.288Z,5.47
2018-09-17T00:30:36.368Z,5.60
2018-09-17T00:33:04.481Z,5.40
2018-09-17T00:35:32.570Z,5.03
2018-09-17T00:38:00.701Z,5.33
2018-09-17T00:40:28.798Z,5.50
2018-09-17T00:42:56.924Z,5.10
2018-09-17T00:45:25.104Z,4.90
2018-09-17T00:47:53.208Z,5.50
2018-09-17T00:50:21.535Z,5.10
2018-09-17T00:52:49.791Z,5.40
2018-09-17T00:55:17.920Z,5.27
2018-09-17T00:57:46.164Z,5.37
2018-09-17T01:00:14.287Z,5.70
2018-09-17T01:02:42.359Z,5.47
2018-09-17T01:05:10.432Z,5.40
2018-09-17T01:07:38.491Z,5.13
2018-09-17T01:10:06.624Z,5.33
2018-09-17T01:12:34.744Z,5.40
2018-09-17T01:15:02.836Z,5.67
2018-09-17T01:17:31.006Z,5.90
2018-09-17T01:19:59.190Z,6.10
2018-09-17T01:22:27.312Z,6.00
2018-09-17T01:24:55.425Z,5.70
2018-09-17T01:27:23.481Z,5.83
2018-09-17T01:29:51.636Z,5.90
2018-09-17T01:32:19.728Z,6.03
2018-09-17T01:34:47.838Z,5.87
2018-09-17T01:37:16.078Z,6.17
2018-09-17T01:39:44.183Z,5.73
2018-09-17T01:42:12.364Z,5.90
2018-09-17T01:44:40.543Z,5.63
2018-09-17T01:47:08.626Z,5.90
2018-09-17T01:49:36.748Z,6.50
2018-09-17T01:52:04.833Z,5.63
2018-09-17T01:54:32.919Z,6.27
2018-09-17T01:57:01.441Z,5.63
2018-09-17T01:59:29.623Z,5.90
2018-09-17T02:01:57.740Z,6.20
2018-09-17T02:04:25.861Z,6.40
2018-09-17T02:06:53.946Z,5.87
2018-09-17T02:09:22.076Z,6.27
2018-09-17T02:11:50.155Z,6.23
2018-09-17T02:14:18.257Z,5.97
2018-09-17T02:16:46.413Z,6.57
2018-09-17T02:19:14.528Z,6.80
2018-09-17T02:21:42.658Z,6.50
2018-09-17T02:24:10.811Z,6.67
2018-09-17T02:26:38.923Z,7.20
2018-09-17T02:29:07.081Z,6.90
2018-09-17T02:31:35.247Z,6.60
2018-09-17T02:34:03.337Z,6.63
2018-09-17T02:36:31.447Z,6.73
2018-09-17T02:38:59.703Z,6.23
2018-09-17T02:41:27.843Z,6.47
2018-09-17T02:43:55.996Z,7.20
2018-09-17T02:46:24.167Z,7.07
2018-09-17T02:48:52.274Z,6.47
2018-09-17T02:51:20.381Z,6.07
2018-09-17T02:53:48.508Z,6.73
2018-09-17T02:56:16.584Z,7.00
2018-09-17T02:58:44.701Z,6.73
2018-09-17T03:01:13.225Z,7.00
2018-09-17T03:03:41.408Z,7.00
2018-09-17T03:06:09.482Z,7.13
2018-09-17T03:08:37.592Z,7.17
2018-09-17T03:11:05.667Z,7.13
2018-09-17T03:13:33.803Z,6.90
2018-09-17T03:16:01.947Z,6.83
2018-09-17T03:18:42.542Z,6.60
2018-09-17T03:21:10.685Z,7.23
2018-09-17T03:23:38.848Z,7.33
2018-09-17T03:26:06.991Z,7.20
2018-09-17T03:28:35.230Z,7.50
2018-09-17T03:31:03.401Z,6.83
2018-09-17T03:33:31.549Z,7.10
2018-09-17T03:35:59.733Z,6.73
2018-09-17T03:38:36.975Z,7.23
2018-09-17T03:41:06.081Z,7.00
2018-09-17T03:43:35.063Z,6.87
2018-09-17T03:46:03.245Z,7.73
2018-09-17T03:48:32.460Z,6.67
2018-09-17T03:51:01.089Z,7.20
2018-09-17T03:53:29.477Z,7.43
2018-09-17T03:55:57.668Z,7.00
2018-09-17T03:58:25.907Z,7.30
2018-09-17T04:00:54.022Z,6.87
2018-09-17T04:03:22.160Z,7.47
2018-09-17T04:05:50.335Z,6.87
2018-09-17T04:08:18.508Z,7.23
2018-09-17T04:10:46.785Z,7.90
2018-09-17T04:13:14.872Z,7.73
2018-09-17T04:15:42.984Z,7.20
2018-09-17T04:18:17.686Z,8.10
2018-09-17T04:20:45.828Z,6.97
2018-09-17T04:23:13.918Z,7.50
2018-09-17T04:25:42.009Z,7.13
2018-09-17T04:28:10.255Z,7.20
2018-09-17T04:30:38.349Z,7.80
2018-09-17T04:33:07.350Z,7.77
2018-09-17T04:35:35.580Z,7.20
2018-09-17T04:38:03.690Z,8.33
2018-09-17T04:40:31.797Z,7.70
2018-09-17T04:42:59.882Z,7.87
2018-09-17T04:45:27.981Z,8.00
2018-09-17T04:47:56.084Z,7.27
2018-09-17T04:50:24.231Z,7.50
2018-09-17T04:52:52.301Z,8.33
2018-09-17T04:55:20.466Z,8.10
2018-09-17T04:57:48.600Z,8.60
2018-09-17T05:00:16.696Z,7.70
2018-09-17T05:02:45.070Z,6.77
2018-09-17T05:05:13.190Z,8.13
2018-09-17T05:07:41.319Z,7.70
2018-09-17T05:10:09.473Z,7.63
2018-09-17T05:12:37.543Z,7.57
2018-09-17T05:15:05.988Z,8.13
2018-09-17T05:17:34.132Z,7.80
2018-09-17T05:20:02.392Z,8.17
2018-09-17T05:22:30.517Z,7.80
2018-09-17T05:24:58.890Z,7.50
2018-09-17T05:27:27.031Z,7.57
2018-09-17T05:29:55.345Z,7.57
2018-09-17T05:32:23.452Z,7.47
2018-09-17T05:34:51.572Z,7.63
2018-09-17T05:37:19.660Z,7.10
2018-09-17T05:39:47.755Z,8.00
2018-09-17T05:42:16.178Z,7.80
2018-09-17T05:44:44.348Z,7.80
2018-09-17T05:47:12.449Z,7.47
2018-09-17T05:49:40.688Z,8.00
2018-09-17T05:52:08.800Z,7.90
2018-09-17T05:54:36.966Z,7.43
2018-09-17T05:57:05.288Z,7.70
2018-09-17T05:59:33.412Z,7.80
2018-09-17T06:02:01.544Z,7.23
2018-09-17T06:04:29.659Z,7.10
2018-09-17T06:06:57.866Z,7.50
2018-09-17T06:09:25.977Z,7.00
2018-09-17T06:11:54.100Z,7.83
2018-09-17T06:14:22.257Z,7.53
2018-09-17T06:16:50.429Z,7.20
2018-09-17T06:19:18.603Z,6.90
2018-09-17T06:21:46.726Z,6.90
2018-09-17T06:24:14.957Z,6.87
2018-09-17T06:26:43.141Z,7.23
2018-09-17T06:29:11.314Z,7.50
2018-09-17T06:31:39.388Z,7.90
2018-09-17T06:34:07.700Z,7.53
2018-09-17T06:36:35.817Z,7.13
2018-09-17T06:39:05.214Z,7.90
2018-09-17T06:41:33.350Z,7.33
2018-09-17T06:44:01.447Z,6.80
2018-09-17T06:46:29.534Z,7.07
2018-09-17T06:48:57.792Z,7.60
2018-09-17T06:51:25.971Z,9.73
2018-09-17T06:53:54.051Z,7.43
2018-09-17T06:56:22.126Z,7.57
2018-09-17T06:58:50.253Z,7.73
2018-09-17T07:01:18.352Z,7.50
2018-09-17T07:03:46.526Z,7.80
2018-09-17T07:06:14.661Z,7.67
2018-09-17T07:08:42.743Z,7.00
2018-09-17T07:11:11.442Z,7.60
2018-09-17T07:13:39.640Z,6.93
2018-09-17T07:16:08.081Z,6.80
2018-09-17T07:18:37.078Z,7.00
2018-09-17T07:21:05.308Z,7.13
2018-09-17T07:23:33.502Z,7.63
2018-09-17T07:26:01.743Z,6.57
2018-09-17T07:28:29.851Z,7.53
2018-09-17T07:30:57.999Z,6.40
2018-09-17T07:33:26.169Z,6.30
2018-09-17T07:35:54.219Z,6.30
2018-09-17T07:38:22.329Z,6.40
2018-09-17T07:40:50.380Z,6.87
2018-09-17T07:43:18.510Z,7.97
2018-09-17T07:45:46.856Z,6.20
2018-09-17T07:48:15.000Z,6.20
2018-09-17T07:50:43.090Z,5.70
2018-09-17T07:53:11.235Z,6.57
2018-09-17T07:55:39.282Z,5.87
2018-09-17T07:58:07.547Z,6.37
2018-09-17T08:00:35.626Z,5.23
2018-09-17T08:03:03.805Z,6.23
2018-09-17T08:05:31.958Z,5.33
2018-09-17T08:08:00.117Z,7.33
2018-09-17T08:10:28.197Z,6.80
2018-09-17T08:12:56.346Z,6.43
2018-09-17T08:15:24.419Z,5.13
2018-09-17T08:17:53.036Z,6.13
2018-09-17T08:20:21.102Z,4.53
2018-09-17T08:22:49.279Z,6.00
2018-09-17T08:25:17.686Z,4.87
2018-09-17T08:27:45.780Z,5.30
2018-09-17T08:30:13.914Z,5.60
2018-09-17T08:32:41.992Z,5.10
2018-09-17T08:35:10.179Z,4.93
2018-09-17T08:37:38.437Z,4.80
2018-09-17T08:40:07.047Z,4.60
2018-09-17T08:42:35.259Z,4.63
2018-09-17T08:45:03.355Z,3.93
2018-09-17T08:47:31.466Z,4.60
2018-09-17T08:49:59.602Z,4.07
2018-09-17T08:52:27.798Z,3.77
2018-09-17T08:55:01.487Z,4.07
2018-09-17T08:57:35.811Z,3.80
2018-09-17T09:00:11.474Z,3.70
2018-09-17T09:03:48.927Z,3.50
2018-09-17T09:06:18.672Z,3.50
2018-09-17T09:08:46.791Z,4.90
2018-09-17T09:11:15.840Z,3.43
2018-09-17T09:13:49.618Z,3.60
2018-09-17T09:16:17.815Z,3.30
2018-09-17T09:18:45.945Z,3.20
2018-09-17T09:21:14.098Z,3.10
2018-09-17T09:23:42.282Z,3.10
2018-09-17T09:26:10.460Z,3.10
2018-09-17T09:28:38.627Z,3.40
2018-09-17T09:31:06.925Z,2.90
2018-09-17T09:33:35.043Z,2.90
2018-09-17T09:36:03.166Z,2.70
2018-09-17T09:38:31.324Z,2.80
2018-09-17T09:40:59.474Z,3.20
2018-09-17T09:43:27.543Z,2.93
2018-09-17T09:45:55.663Z,2.93
2018-09-17T09:48:23.770Z,3.47
2018-09-17T09:50:51.874Z,3.13
2018-09-17T09:53:20.064Z,4.00
2018-09-17T09:55:48.186Z,3.70
2018-09-17T09:58:16.325Z,2.80
2018-09-17T10:00:49.881Z,3.17
2018-09-17T10:03:29.430Z,2.30
2018-09-17T10:05:57.982Z,2.63
2018-09-17T10:08:26.239Z,2.70
2018-09-17T10:10:59.864Z,2.60
2018-09-17T10:13:33.352Z,2.83
2018-09-17T10:16:05.702Z,2.70
2018-09-17T10:18:39.251Z,2.67
2018-09-17T10:21:07.380Z,2.73
2018-09-17T10:23:35.495Z,3.20
2018-09-17T10:26:03.630Z,3.20
2018-09-17T10:28:31.742Z,3.53
2018-09-17T10:30:59.879Z,4.47
2018-09-17T10:33:27.991Z,4.30
2018-09-17T10:35:56.116Z,4.10
2018-09-17T10:38:24.241Z,4.17
2018-09-17T10:40:52.361Z,3.97
2018-09-17T10:43:20.484Z,2.77
2018-09-17T10:45:48.632Z,2.53
2018-09-17T10:48:16.760Z,2.60
2018-09-17T10:50:44.854Z,2.70
2018-09-17T10:53:12.969Z,2.50
2018-09-17T10:55:41.063Z,3.73
2018-09-17T10:58:09.161Z,2.40
2018-09-17T11:00:37.239Z,2.13
2018-09-17T11:03:05.321Z,2.03
2018-09-17T11:05:33.385Z,2.50
2018-09-17T11:08:01.632Z,2.20
2018-09-17T11:10:29.768Z,1.87
2018-09-17T11:12:57.906Z,2.30
2018-09-17T11:15:31.381Z,2.90
2018-09-17T11:17:59.495Z,2.23
2018-09-17T11:20:27.652Z,2.70
2018-09-17T11:22:55.790Z,2.03
2018-09-17T11:25:23.907Z,2.20
2018-09-17T11:27:52.045Z,2.00
2018-09-17T11:30:20.147Z,1.90
2018-09-17T11:32:48.884Z,1.90
2018-09-17T11:35:17.176Z,1.80
2018-09-17T11:37:45.477Z,2.20
2018-09-17T11:40:13.590Z,1.80
2018-09-17T11:42:41.856Z,1.90
2018-09-17T11:45:09.958Z,2.07
2018-09-17T11:47:38.129Z,1.90
2018-09-17T11:50:06.194Z,1.93
2018-09-17T11:52:34.498Z,1.70
2018-09-17T11:55:02.852Z,1.70
2018-09-17T11:57:31.066Z,2.20
2018-09-17T11:59:59.187Z,2.00
2018-09-17T12:02:32.239Z,2.07
2018-09-17T12:05:05.286Z,2.00
2018-09-17T12:07:39.641Z,1.77
2018-09-17T12:10:08.758Z,2.23
2018-09-17T12:12:37.394Z,2.27
2018-09-17T12:15:05.750Z,2.03
2018-09-17T12:17:34.539Z,2.00
2018-09-17T12:20:02.670Z,1.80
2018-09-17T12:22:30.844Z,2.10
2018-09-17T12:24:58.964Z,1.87
2018-09-17T12:27:27.050Z,2.30
2018-09-17T12:29:55.113Z,2.50
2018-09-17T12:32:23.428Z,2.27
2018-09-17T12:34:51.584Z,1.50
2018-09-17T12:37:19.673Z,1.70
2018-09-17T12:39:47.796Z,2.50
2018-09-17T12:42:15.903Z,1.70
2018-09-17T12:44:44.022Z,1.70
2018-09-17T12:47:12.088Z,1.80
2018-09-17T12:49:40.198Z,2.73
2018-09-17T12:52:08.333Z,1.90
2018-09-17T12:54:36.430Z,1.90
2018-09-17T12:57:04.623Z,2.53
2018-09-17T12:59:32.739Z,2.00
2018-09-17T13:02:00.844Z,2.73
2018-09-17T13:04:28.937Z,2.03
2018-09-17T13:06:56.994Z,2.10
2018-09-17T13:09:25.065Z,1.93
2018-09-17T13:11:53.155Z,1.90
2018-09-17T13:14:21.238Z,2.47
2018-09-17T13:16:49.386Z,1.63
2018-09-17T13:19:17.458Z,1.70
2018-09-17T13:21:45.686Z,2.13
2018-09-17T13:24:13.814Z,1.93
2018-09-17T13:26:41.927Z,2.37
2018-09-17T13:29:10.043Z,1.70
2018-09-17T13:31:38.213Z,1.70
2018-09-17T13:34:06.333Z,1.67
2018-09-17T13:36:34.520Z,1.93
2018-09-17T13:39:02.726Z,2.30
2018-09-17T13:41:30.822Z,3.90
2018-09-17T13:43:58.922Z,2.47
2018-09-17T13:46:27.046Z,2.07
2018-09-17T13:48:55.127Z,2.00
2018-09-17T13:51:23.329Z,1.83
2018-09-17T13:53:51.436Z,2.00
2018-09-17T13:56:19.603Z,2.23
2018-09-17T13:58:47.751Z,2.10
2018-09-17T14:01:15.942Z,1.80
2018-09-17T14:03:44.044Z,2.27
2018-09-17T14:06:12.149Z,2.00
2018-09-17T14:08:40.418Z,1.90
2018-09-17T14:11:08.567Z,2.30
2018-09-17T14:13:36.706Z,2.27
2018-09-17T14:16:08.038Z,2.73
2018-09-17T14:18:36.571Z,2.10
2018-09-17T14:21:04.801Z,1.90
2018-09-17T14:23:32.913Z,2.90
2018-09-17T14:26:01.530Z,2.73
2018-09-17T14:28:29.599Z,2.50
2018-09-17T14:30:57.703Z,1.80
2018-09-17T14:33:31.379Z,1.80
2018-09-17T14:35:59.574Z,1.90
2018-09-17T14:38:27.677Z,2.70
2018-09-17T14:40:56.527Z,2.33
2018-09-17T14:43:24.710Z,3.10
2018-09-17T14:45:52.994Z,2.40
2018-09-17T14:48:21.077Z,1.90
2018-09-17T14:50:49.226Z,2.20
2018-09-17T14:53:17.968Z,3.07
2018-09-17T14:55:46.713Z,2.60
2018-09-17T14:58:15.151Z,2.30
2018-09-17T15:00:43.198Z,2.60
2018-09-17T15:03:11.554Z,2.43
2018-09-17T15:05:39.746Z,2.03
2018-09-17T15:08:08.345Z,2.57
2018-09-17T15:10:36.438Z,2.17
2018-09-17T15:13:04.620Z,1.97
2018-09-17T15:15:32.820Z,2.20
2018-09-17T15:18:00.801Z,3.17
2018-09-17T15:20:29.013Z,2.10
2018-09-17T15:22:57.102Z,1.73
2018-09-17T15:25:25.652Z,1.80
2018-09-17T15:27:53.904Z,4.30
2018-09-17T15:30:22.075Z,7.40
2018-09-17T15:32:50.268Z,2.20
2018-09-17T15:35:18.372Z,1.90
2018-09-17T15:37:46.617Z,1.93
2018-09-17T15:40:14.796Z,2.83
2018-09-17T15:42:43.187Z,2.00
2018-09-17T15:45:11.297Z,2.27
2018-09-17T15:47:39.445Z,1.63
2018-09-17T15:50:07.784Z,1.93
2018-09-17T15:52:35.862Z,2.27
2018-09-17T15:55:03.972Z,4.80
2018-09-17T15:57:32.144Z,3.60
2018-09-17T16:00:00.398Z,3.60
2018-09-17T16:02:28.528Z,3.40
2018-09-17T16:04:56.665Z,6.57
2018-09-17T16:07:25.208Z,8.43
2018-09-17T16:09:53.296Z,4.20
2018-09-17T16:12:21.465Z,3.40
2018-09-17T16:14:49.652Z,3.10
2018-09-17T16:17:17.834Z,3.70
2018-09-17T16:19:45.939Z,3.40
2018-09-17T16:22:14.061Z,2.80
2018-09-17T16:24:42.344Z,2.57
2018-09-17T16:27:10.627Z,5.77
2018-09-17T16:29:38.808Z,6.97
2018-09-17T16:32:06.905Z,7.70
2018-09-17T16:34:35.074Z,6.00
2018-09-17T16:37:03.199Z,6.00
2018-09-17T16:39:31.320Z,16.10
2018-09-17T16:41:59.436Z,25.20
2018-09-17T16:44:27.784Z,71.80
2018-09-17T16:46:55.963Z,21.67
2018-09-17T16:49:24.077Z,13.70
2018-09-17T16:51:52.241Z,9.33
2018-09-17T16:54:20.368Z,10.90
2018-09-17T16:56:48.469Z,4.53
2018-09-17T16:59:16.689Z,4.03
2018-09-17T17:01:44.796Z,4.20
2018-09-17T17:04:13.015Z,3.30
2018-09-17T17:06:41.180Z,20.77
2018-09-17T17:09:10.221Z,20.67
2018-09-17T17:11:38.402Z,4.83
2018-09-17T17:14:06.553Z,4.03
2018-09-17T17:16:34.645Z,4.10
2018-09-17T17:19:02.768Z,4.83
2018-09-17T17:21:30.861Z,4.23
2018-09-17T17:23:59.115Z,5.13
2018-09-17T17:26:27.205Z,4.83
2018-09-17T17:28:55.395Z,4.60
2018-09-17T17:31:23.501Z,4.93
2018-09-17T17:33:51.666Z,4.90
2018-09-17T17:36:19.775Z,5.00
2018-09-17T17:38:47.912Z,5.13
2018-09-17T17:41:16.090Z,5.20
2018-09-17T17:43:44.280Z,5.20
2018-09-17T17:46:12.474Z,5.50
2018-09-17T17:48:40.495Z,5.67
2018-09-17T17:51:08.665Z,5.90
2018-09-17T17:53:36.825Z,6.30
2018-09-17T17:56:04.920Z,6.30
2018-09-17T17:58:33.237Z,6.73
2018-09-17T18:01:01.703Z,6.67
2018-09-17T18:03:29.733Z,7.53
2018-09-17T18:05:58.111Z,7.00
2018-09-17T18:08:26.282Z,6.97
2018-09-17T18:10:54.566Z,7.10
2018-09-17T18:13:22.760Z,7.47
2018-09-17T18:15:50.913Z,7.73
2018-09-17T18:18:19.086Z,7.83
2018-09-17T18:20:47.323Z,9.00
2018-09-17T18:23:15.433Z,8.33
2018-09-17T18:25:43.705Z,9.13
2018-09-17T18:28:11.925Z,8.97
2018-09-17T18:30:40.069Z,8.87
2018-09-17T18:33:08.355Z,8.80
2018-09-17T18:35:36.511Z,8.93
2018-09-17T18:38:04.777Z,9.23
2018-09-17T18:40:33.222Z,9.93
2018-09-17T18:43:01.552Z,9.20
2018-09-17T18:45:29.958Z,9.43
2018-09-17T18:47:58.120Z,9.50
2018-09-17T18:50:26.482Z,9.00
2018-09-17T18:52:54.742Z,9.97
2018-09-17T18:55:22.907Z,10.20
2018-09-17T18:57:51.031Z,10.00
2018-09-17T19:00:19.234Z,9.47
2018-09-17T19:02:47.384Z,11.87
2018-09-17T19:05:15.547Z,10.57
2018-09-17T19:07:43.693Z,10.20
2018-09-17T19:10:11.849Z,9.63
2018-09-17T19:12:39.955Z,10.13
2018-09-17T19:15:13.564Z,8.97
2018-09-17T19:17:42.468Z,9.13
2018-09-17T19:20:11.595Z,9.43
2018-09-17T19:22:45.194Z,9.90
2018-09-17T19:25:14.385Z,19.20
2018-09-17T19:28:47.576Z,14.97
2018-09-17T19:31:15.788Z,11.03
2018-09-17T19:33:43.970Z,11.03
2018-09-17T19:36:12.165Z,10.33
2018-09-17T19:38:45.708Z,11.40
2018-09-17T19:41:13.841Z,10.50
2018-09-17T19:43:42.029Z,10.60
2018-09-17T19:46:15.764Z,9.60
2018-09-17T19:48:43.876Z,10.20
2018-09-17T19:51:17.776Z,10.33
2018-09-17T19:53:45.982Z,20.47
2018-09-17T19:56:14.078Z,26.67
2018-09-17T19:58:47.663Z,17.97
2018-09-17T20:01:15.780Z,17.57
2018-09-17T20:03:44.037Z,10.67
2018-09-17T20:06:17.575Z,10.70
2018-09-17T20:08:45.833Z,11.60
2018-09-17T20:11:14.078Z,11.47
2018-09-17T20:13:42.244Z,12.17
2018-09-17T20:16:10.356Z,11.10
2018-09-17T20:18:38.471Z,10.50
2018-09-17T20:21:07.123Z,11.33
2018-09-17T20:23:35.221Z,11.47
2018-09-17T20:26:03.404Z,11.43
2018-09-17T20:28:31.523Z,12.03
2018-09-17T20:30:59.706Z,20.17
2018-09-17T20:33:31.848Z,11.50
2018-09-17T20:36:00.451Z,15.30
2018-09-17T20:38:28.869Z,11.33
2018-09-17T20:40:56.978Z,10.80
2018-09-17T20:43:25.156Z,9.07
2018-09-17T20:45:53.372Z,10.10
2018-09-17T20:48:21.601Z,9.27
2018-09-17T20:50:49.702Z,11.10
2018-09-17T20:53:17.785Z,11.23
2018-09-17T20:55:46.021Z,10.10
2018-09-17T20:58:14.135Z,11.07
2018-09-17T21:00:42.419Z,11.17
2018-09-17T21:03:10.481Z,9.83
2018-09-17T21:05:38.616Z,10.57
2018-09-17T21:08:06.715Z,11.27
2018-09-17T21:10:34.886Z,10.17
2018-09-17T21:13:03.049Z,10.10
2018-09-17T21:15:31.098Z,10.10
2018-09-17T21:17:59.201Z,9.47
2018-09-17T21:20:27.379Z,11.53
2018-09-17T21:22:55.651Z,9.23
2018-09-17T21:25:23.792Z,9.53
2018-09-17T21:27:51.934Z,9.90
2018-09-17T21:30:20.018Z,9.37
2018-09-17T21:32:48.154Z,9.57
2018-09-17T21:35:16.299Z,9.37
2018-09-17T21:37:44.495Z,8.70
2018-09-17T21:40:12.669Z,8.83
2018-09-17T21:42:40.745Z,8.23
2018-09-17T21:45:09.825Z,8.10
2018-09-17T21:47:38.078Z,8.77
2018-09-17T21:50:06.287Z,7.80
2018-09-17T21:52:34.536Z,8.20
2018-09-17T21:55:02.619Z,7.03
2018-09-17T21:57:30.756Z,7.33
2018-09-17T21:59:58.866Z,7.13
2018-09-17T22:02:27.012Z,7.60
2018-09-17T22:04:55.092Z,7.60
2018-09-17T22:07:24.735Z,7.80
2018-09-17T22:09:52.991Z,7.73
2018-09-17T22:12:21.171Z,7.60
2018-09-17T22:14:49.338Z,7.77
2018-09-17T22:17:17.479Z,7.93
2018-09-17T22:19:45.596Z,7.47
2018-09-17T22:22:13.736Z,8.10
2018-09-17T22:24:41.814Z,7.50
2018-09-17T22:27:09.918Z,7.57
2018-09-17T22:29:38.031Z,7.30
2018-09-17T22:32:06.170Z,8.03
2018-09-17T22:34:34.308Z,7.53
2018-09-17T22:37:02.404Z,7.80
2018-09-17T22:39:30.501Z,7.17
2018-09-17T22:41:58.683Z,7.70
2018-09-17T22:44:26.756Z,7.70
2018-09-17T22:46:55.154Z,7.23
2018-09-17T22:49:23.280Z,7.73
2018-09-17T22:51:51.425Z,7.43
2018-09-17T22:54:19.543Z,7.30
2018-09-17T22:56:47.600Z,7.60
2018-09-17T22:59:15.766Z,7.50
2018-09-17T23:01:44.067Z,7.00
2018-09-17T23:04:12.154Z,7.20
2018-09-17T23:06:40.320Z,6.90
2018-09-17T23:09:09.985Z,7.23
2018-09-17T23:11:38.320Z,7.13
2018-09-17T23:14:06.438Z,7.13
2018-09-17T23:16:34.635Z,7.40
2018-09-17T23:19:02.817Z,7.00
2018-09-17T23:21:30.995Z,6.70
2018-09-17T23:23:59.207Z,6.97
2018-09-17T23:26:27.300Z,6.77
2018-09-17T23:28:55.450Z,6.40
2018-09-17T23:31:23.568Z,6.17
2018-09-17T23:33:51.659Z,5.83
2018-09-17T23:36:19.765Z,6.70
2018-09-17T23:38:47.855Z,6.30
2018-09-17T23:41:15.922Z,6.20
2018-09-17T23:43:44.034Z,6.30
2018-09-17T23:46:12.167Z,6.40
2018-09-17T23:48:40.266Z,5.87
2018-09-17T23:51:08.357Z,6.07
2018-09-17T23:53:36.516Z,6.00
2018-09-17T23:56:04.584Z,6.13
2018-09-17T23:58:32.686Z,6.57
